createdAt,value
2019-04-23T00:00:27.755Z,12.9
2019-04-23T00:01:34.928Z,12.9
2019-04-23T00:02:29.018Z,12.8
2019-04-23T00:03:34.201Z,12.8
2019-04-23T00:04:28.186Z,12.8
2019-04-23T00:05:40.574Z,12.9
2019-04-23T00:06:31.908Z,12.9
2019-04-23T00:07:41.277Z,12.9
2019-04-23T00:08:41.362Z,12.9
2019-04-23T00:09:32.716Z,13
2019-04-23T00:11:32.273Z,12.8
2019-04-23T00:12:47.683Z,12.9
2019-04-23T00:13:36.956Z,12.9
2019-04-23T00:14:37.812Z,12.8
2019-04-23T00:15:30.220Z,12.7
2019-04-23T00:17:36.800Z,12.6
2019-04-23T00:18:42.065Z,12.6
2019-04-23T00:19:30.791Z,12.7
2019-04-23T00:20:33.707Z,12.7
2019-04-23T00:21:32.929Z,12.7
2019-04-23T00:22:36.399Z,12.8
2019-04-23T00:23:44.283Z,12.7
2019-04-23T00:24:56.591Z,12.7
2019-04-23T00:26:36.280Z,12.7
2019-04-23T00:27:35.070Z,12.8
2019-04-23T00:28:34.744Z,12.9
2019-04-23T00:29:36.339Z,12.8
2019-04-23T00:30:42.637Z,12.7
2019-04-23T00:31:36.027Z,12.7
2019-04-23T00:32:34.188Z,12.8
2019-04-23T00:33:34.065Z,12.8
2019-04-23T00:34:41.206Z,12.7
2019-04-23T00:35:38.168Z,12.6
2019-04-23T00:36:50.957Z,12.5
2019-04-23T00:37:35.143Z,12.6
2019-04-23T00:38:38.199Z,12.7
2019-04-23T00:39:40.585Z,12.6
2019-04-23T00:40:38.808Z,12.4
2019-04-23T00:41:36.116Z,12.5
2019-04-23T00:42:53.052Z,12.4
2019-04-23T00:43:32.405Z,12.5
2019-04-23T00:44:39.886Z,12.5
2019-04-23T00:45:39.670Z,12.4
2019-04-23T00:46:34.810Z,12.4
2019-04-23T00:47:37.761Z,12.4
2019-04-23T00:50:44.583Z,12.3
2019-04-23T00:51:36.143Z,12.5
2019-04-23T00:52:38.664Z,12.6
2019-04-23T00:53:32.300Z,12.4
2019-04-23T00:54:39.019Z,12.4
2019-04-23T00:55:34.963Z,12.4
2019-04-23T00:56:52.426Z,12.4
2019-04-23T00:57:48.285Z,12.4
2019-04-23T00:58:54.457Z,12.3
2019-04-23T01:01:42.354Z,12.3
2019-04-23T01:02:36.747Z,12.3
2019-04-23T01:03:29.200Z,12.3
2019-04-23T01:04:39.467Z,12.4
2019-04-23T01:05:35.054Z,12.4
2019-04-23T01:06:36.852Z,12.4
2019-04-23T01:07:37.936Z,12.4
2019-04-23T01:08:35.175Z,12.4
2019-04-23T01:09:38.485Z,12.2
2019-04-23T01:10:34.272Z,12.3
2019-04-23T01:11:30.252Z,12.2
2019-04-23T01:14:00.647Z,12.4
2019-04-23T01:14:38.220Z,12.3
2019-04-23T01:15:38.562Z,12.3
2019-04-23T01:16:32.693Z,12.2
2019-04-23T01:17:38.994Z,12.3
2019-04-23T01:18:46.676Z,12.2
2019-04-23T01:19:36.966Z,12.2
2019-04-23T01:20:36.399Z,12.2
2019-04-23T01:21:18.020Z,12.2
2019-04-23T01:22:16.990Z,12.2
2019-04-23T01:23:20.495Z,12.2
2019-04-23T01:24:21.646Z,12.2
2019-04-23T01:25:24.334Z,12
2019-04-23T01:26:34.182Z,12
2019-04-23T01:27:54.405Z,12
2019-04-23T01:28:41.686Z,12.1
2019-04-23T01:29:42.293Z,12.1
2019-04-23T01:30:40.325Z,12.1
2019-04-23T01:31:32.969Z,12.1
2019-04-23T01:32:40.872Z,12.1
2019-04-23T01:33:44.531Z,12
2019-04-23T01:34:38.554Z,12
2019-04-23T01:35:47.103Z,12
2019-04-23T01:36:35.391Z,12.2
2019-04-23T01:37:40.920Z,12
2019-04-23T01:38:45.314Z,12.1
2019-04-23T01:39:43.670Z,12.1
2019-04-23T01:40:40.220Z,12
2019-04-23T01:42:58.438Z,12
2019-04-23T01:43:40.872Z,11.9
2019-04-23T01:44:50.102Z,11.9
2019-04-23T01:45:34.035Z,11.9
2019-04-23T01:46:49.037Z,11.8
2019-04-23T01:48:46.727Z,12
2019-04-23T01:49:53.480Z,12.1
2019-04-23T01:50:48.157Z,12.1
2019-04-23T01:51:45.965Z,11.9
2019-04-23T01:52:51.813Z,12
2019-04-23T01:53:45.087Z,11.9
2019-04-23T01:54:45.075Z,12
2019-04-23T01:55:46.381Z,12.1
2019-04-23T01:56:38.353Z,12
2019-04-23T01:57:37.331Z,11.9
2019-04-23T01:58:43.758Z,11.8
2019-04-23T01:59:45.661Z,11.8
2019-04-23T02:00:46.701Z,11.8
2019-04-23T02:02:49.164Z,11.8
2019-04-23T02:03:40.943Z,11.8
2019-04-23T02:05:47.890Z,11.8
2019-04-23T02:06:38.456Z,11.8
2019-04-23T02:07:50.205Z,11.8
2019-04-23T02:08:46.860Z,11.7
2019-04-23T02:09:46.829Z,11.7
2019-04-23T02:10:50.750Z,11.8
2019-04-23T02:11:43.400Z,11.7
2019-04-23T02:12:47.499Z,11.6
2019-04-23T02:13:48.604Z,11.6
2019-04-23T02:14:49.566Z,11.6
2019-04-23T02:16:41.985Z,11.4
2019-04-23T02:17:51.890Z,11.3
2019-04-23T02:18:47.279Z,11.4
2019-04-23T02:19:38.333Z,11.5
2019-04-23T02:20:47.091Z,11.5
2019-04-23T02:23:03.923Z,11.5
2019-04-23T02:23:42.236Z,11.6
2019-04-23T02:24:47.357Z,11.6
2019-04-23T02:25:53.599Z,11.5
2019-04-23T02:26:43.326Z,11.5
2019-04-23T02:27:50.848Z,11.5
2019-04-23T02:30:05.206Z,11.4
2019-04-23T02:31:57.331Z,11.4
2019-04-23T02:32:59.047Z,11.5
2019-04-23T02:34:57.374Z,11.3
2019-04-23T02:36:44.848Z,11.4
2019-04-23T02:38:00.037Z,11.5
2019-04-23T02:39:00.253Z,11.4
2019-04-23T02:43:06.183Z,11.5
2019-04-23T02:43:58.656Z,11.5
2019-04-23T02:44:38.470Z,11.6
2019-04-23T02:46:58.585Z,11.4
2019-04-23T02:48:00.910Z,11.3
2019-04-23T02:48:55.823Z,11.4
2019-04-23T02:50:30.682Z,11.3
2019-04-23T02:51:41.735Z,11.3
2019-04-23T02:52:55.939Z,11.3
2019-04-23T02:56:50.611Z,11.5
2019-04-23T03:02:04.979Z,11.7
2019-04-23T03:02:58.044Z,11.6
2019-04-23T03:03:59.378Z,11.7
2019-04-23T03:04:54.958Z,11.5
2019-04-23T03:05:56.651Z,11.3
2019-04-23T03:07:00.835Z,11.3
2019-04-23T03:08:46.222Z,11.4
2019-04-23T03:09:58.541Z,11.3
2019-04-23T03:10:59.349Z,11.3
2019-04-23T03:11:56.507Z,11.4
2019-04-23T03:12:56.292Z,11.2
2019-04-23T03:14:58.092Z,11.2
2019-04-23T03:18:11.304Z,11.1
2019-04-23T03:19:58.314Z,11.3
2019-04-23T03:21:15.168Z,11.2
2019-04-23T03:21:51.395Z,11.1
2019-04-23T03:23:02.343Z,11.2
2019-04-23T03:23:59.545Z,11.2
2019-04-23T03:24:54.201Z,11.4
2019-04-23T03:25:55.932Z,11.3
2019-04-23T03:27:07.168Z,11.3
2019-04-23T03:27:55.174Z,11.3
2019-04-23T03:29:03.450Z,11.1
2019-04-23T03:32:11.666Z,11.1
2019-04-23T03:32:44.420Z,11
2019-04-23T03:35:07.821Z,10.9
2019-04-23T03:38:05.624Z,10.9
2019-04-23T03:39:01.387Z,10.8
2019-04-23T03:40:01.580Z,10.9
2019-04-23T03:41:06.407Z,11
2019-04-23T03:43:06.197Z,10.9
2019-04-23T03:43:50.899Z,10.8
2019-04-23T03:44:28.739Z,10.8
2019-04-23T03:47:01.468Z,10.8
2019-04-23T03:50:04.204Z,10.9
2019-04-23T03:50:50.534Z,10.8
2019-04-23T03:52:11.824Z,10.7
2019-04-23T03:52:53.230Z,10.7
2019-04-23T03:54:25.683Z,10.7
2019-04-23T03:55:03.051Z,10.8
2019-04-23T03:57:13.234Z,10.9
2019-04-23T03:58:02.113Z,11
2019-04-23T03:58:57.849Z,11
2019-04-23T04:00:02.109Z,11
2019-04-23T04:03:04.544Z,10.9
2019-04-23T04:04:44.226Z,10.8
2019-04-23T04:06:05.059Z,10.8
2019-04-23T04:06:47.840Z,10.9
2019-04-23T04:08:06.165Z,10.8
2019-04-23T04:09:05.784Z,10.7
2019-04-23T04:12:55.995Z,10.7
2019-04-23T04:14:11.473Z,10.8
2019-04-23T04:15:03.508Z,10.8
2019-04-23T04:16:00.200Z,10.9
2019-04-23T04:17:09.157Z,10.8
2019-04-23T04:18:20.499Z,10.7
2019-04-23T04:19:46.555Z,10.9
2019-04-23T04:21:00.439Z,10.9
2019-04-23T04:23:07.085Z,11
2019-04-23T04:24:58.897Z,10.9
2019-04-23T04:27:23.895Z,11
2019-04-23T04:29:08.547Z,11
2019-04-23T04:30:10.113Z,11
2019-04-23T04:33:04.741Z,11.1
2019-04-23T04:34:10.393Z,11.1
2019-04-23T04:35:15.993Z,11.1
2019-04-23T04:36:05.398Z,10.9
2019-04-23T04:38:03.932Z,11
2019-04-23T04:39:14.852Z,11.2
2019-04-23T04:42:04.428Z,11
2019-04-23T04:44:16.811Z,11
2019-04-23T04:45:12.057Z,10.9
2019-04-23T04:46:12.127Z,10.9
2019-04-23T04:46:58.082Z,11
2019-04-23T04:47:57.966Z,11.1
2019-04-23T04:49:01.155Z,11.1
2019-04-23T04:49:59.375Z,11
2019-04-23T04:51:07.685Z,11
2019-04-23T04:52:21.613Z,11
2019-04-23T04:53:09.589Z,11
2019-04-23T04:54:09.169Z,11
2019-04-23T04:55:02.721Z,11.2
2019-04-23T04:56:04.759Z,11.2
2019-04-23T04:57:09.625Z,11.2
2019-04-23T04:57:57.863Z,11.1
2019-04-23T04:59:03.451Z,11.1
2019-04-23T05:02:06.282Z,11.1
2019-04-23T05:03:18.752Z,11
2019-04-23T05:03:59.760Z,11
2019-04-23T05:06:20.900Z,11.1
2019-04-23T05:07:08.418Z,11.2
2019-04-23T05:07:47.208Z,11.2
2019-04-23T05:10:07.159Z,11.3
2019-04-23T05:11:07.122Z,11.2
2019-04-23T05:12:10.771Z,11.2
2019-04-23T05:13:59.512Z,11.2
2019-04-23T05:15:06.710Z,11.2
2019-04-23T05:16:05.857Z,11.2
2019-04-23T05:17:02.632Z,11.3
2019-04-23T05:18:07.236Z,11.3
2019-04-23T05:19:56.076Z,11.3
2019-04-23T05:22:05.052Z,11.3
2019-04-23T05:23:05.759Z,11.4
2019-04-23T05:23:59.126Z,11.4
2019-04-23T05:24:56.929Z,11.4
2019-04-23T05:25:57.668Z,11.4
2019-04-23T05:30:00.553Z,11.4
2019-04-23T05:30:58.507Z,11.5
2019-04-23T05:31:57.535Z,11.5
2019-04-23T05:33:03.716Z,11.4
2019-04-23T05:35:01.747Z,11.4
2019-04-23T05:36:11.032Z,11.4
2019-04-23T05:36:53.257Z,11.4
2019-04-23T05:39:07.384Z,11.4
2019-04-23T05:40:02.356Z,11.3
2019-04-23T05:41:58.251Z,11.4
2019-04-23T05:42:57.600Z,11.3
2019-04-23T05:43:59.303Z,11.3
2019-04-23T05:44:53.799Z,11.3
2019-04-23T05:46:04.201Z,11.4
2019-04-23T05:46:59.117Z,11.5
2019-04-23T05:48:06.562Z,11.5
2019-04-23T05:48:59.349Z,11.5
2019-04-23T05:49:58.785Z,11.5
2019-04-23T05:51:03.983Z,11.6
2019-04-23T05:51:58.720Z,11.5
2019-04-23T05:52:58.903Z,11.5
2019-04-23T05:53:57.786Z,11.4
2019-04-23T05:54:59.798Z,11.4
2019-04-23T05:56:01.398Z,11.4
2019-04-23T05:58:00.379Z,11.5
2019-04-23T05:59:05.308Z,11.5
2019-04-23T06:00:01.955Z,11.7
2019-04-23T06:01:05.039Z,11.7
2019-04-23T06:02:01.994Z,11.7
2019-04-23T06:03:04.325Z,11.7
2019-04-23T06:05:03.121Z,12
2019-04-23T06:06:02.781Z,11.8
2019-04-23T06:07:08.187Z,11.8
2019-04-23T06:08:58.221Z,11.8
2019-04-23T06:10:04.573Z,11.9
2019-04-23T06:11:01.780Z,11.9
2019-04-23T06:11:59.531Z,11.8
2019-04-23T06:13:04.336Z,12
2019-04-23T06:14:05.025Z,12
2019-04-23T06:14:52.184Z,11.9
2019-04-23T06:15:57.549Z,12
2019-04-23T06:17:03.060Z,12.1
2019-04-23T06:18:01.380Z,12.1
2019-04-23T06:19:06.898Z,12
2019-04-23T06:20:02.716Z,12.2
2019-04-23T06:21:02.079Z,12.4
2019-04-23T06:23:05.279Z,12.4
2019-04-23T06:24:48.407Z,12.4
2019-04-23T06:27:54.104Z,12.7
2019-04-23T06:29:04.778Z,12.7
2019-04-23T06:29:49.343Z,12.8
2019-04-23T06:30:54.146Z,12.8
2019-04-23T06:31:58.342Z,12.7
2019-04-23T06:34:56.425Z,13.1
2019-04-23T06:36:05.012Z,13
2019-04-23T06:37:01.850Z,13.1
2019-04-23T06:38:21.789Z,13.2
2019-04-23T06:38:55.734Z,13.2
2019-04-23T06:39:59.609Z,13.2
2019-04-23T06:41:00.574Z,13.3
2019-04-23T06:42:00.155Z,13.4
2019-04-23T06:43:04.539Z,13.3
2019-04-23T06:46:04.674Z,13.8
2019-04-23T06:47:02.740Z,13.9
2019-04-23T06:48:08.634Z,13.9
2019-04-23T06:49:00.545Z,13.7
2019-04-23T06:49:58.018Z,13.7
2019-04-23T06:51:11.014Z,13.7
2019-04-23T06:52:14.429Z,13.8
2019-04-23T06:52:58.675Z,13.8
2019-04-23T06:54:02.905Z,13.9
2019-04-23T06:56:03.502Z,14
2019-04-23T06:58:04.258Z,14
2019-04-23T06:59:05.508Z,14.2
2019-04-23T06:59:58.984Z,14.2
2019-04-23T07:02:11.335Z,14.3
2019-04-23T07:03:07.460Z,14.1
2019-04-23T07:04:04.772Z,14.1
2019-04-23T07:05:08.101Z,14.2
2019-04-23T07:06:16.538Z,14.3
2019-04-23T07:07:04.243Z,14.5
2019-04-23T07:08:02.553Z,14.6
2019-04-23T07:09:04.991Z,14.5
2019-04-23T07:09:57.703Z,14.6
2019-04-23T07:11:07.323Z,14.8
2019-04-23T07:11:53.840Z,14.7
2019-04-23T07:13:02.450Z,14.6
2019-04-23T07:15:16.209Z,14.5
2019-04-23T07:17:02.222Z,14.5
2019-04-23T07:18:03.746Z,14.6
2019-04-23T07:19:09.022Z,14.7
2019-04-23T07:20:00.046Z,14.8
2019-04-23T07:21:06.337Z,14.8
2019-04-23T07:22:12.819Z,14.9
2019-04-23T07:24:14.970Z,14.8
2019-04-23T07:25:07.453Z,14.9
2019-04-23T07:26:15.312Z,15
2019-04-23T07:27:01.078Z,15
2019-04-23T07:28:12.766Z,15.1
2019-04-23T07:29:15.241Z,15.2
2019-04-23T07:30:08.179Z,15
2019-04-23T07:31:13.301Z,15.1
2019-04-23T07:32:05.095Z,15.2
2019-04-23T07:34:05.024Z,15.2
2019-04-23T07:36:08.348Z,15.1
2019-04-23T07:37:04.629Z,15
2019-04-23T07:38:12.647Z,15.1
2019-04-23T07:39:05.818Z,15.2
2019-04-23T07:40:09.200Z,15.2
2019-04-23T07:40:53.545Z,15.1
2019-04-23T07:42:07.924Z,15
2019-04-23T07:43:02.835Z,15.1
2019-04-23T07:44:12.177Z,15.2
2019-04-23T07:45:09.220Z,15.2
2019-04-23T07:47:15.208Z,15.4
2019-04-23T07:48:10.394Z,15.4
2019-04-23T07:49:10.023Z,15.3
2019-04-23T07:50:15.636Z,15.2
2019-04-23T07:51:05.599Z,15.3
2019-04-23T07:52:14.724Z,15.4
2019-04-23T07:53:12.437Z,15.3
2019-04-23T07:54:07.386Z,15.2
2019-04-23T07:55:06.150Z,15.1
2019-04-23T07:56:07.012Z,15
2019-04-23T07:57:13.302Z,15.1
2019-04-23T07:58:23.215Z,15.1
2019-04-23T07:59:11.958Z,15.2
2019-04-23T08:00:00.313Z,15.3
2019-04-23T08:01:03.196Z,15.1
2019-04-23T08:02:13.766Z,15.2
2019-04-23T08:03:05.172Z,15.2
2019-04-23T08:04:08.357Z,15.3
2019-04-23T08:05:15.368Z,15.3
2019-04-23T08:06:05.656Z,15.3
2019-04-23T08:07:06.388Z,15.3
2019-04-23T08:08:06.594Z,15.3
2019-04-23T08:09:08.377Z,15.3
2019-04-23T08:10:07.829Z,15.4
2019-04-23T08:12:19.023Z,15.5
2019-04-23T08:12:57.978Z,15.2
2019-04-23T08:15:21.172Z,15.5
2019-04-23T08:16:17.906Z,15.5
2019-04-23T08:17:10.184Z,15.5
2019-04-23T08:18:11.940Z,15.3
2019-04-23T08:19:04.267Z,15.5
2019-04-23T08:19:59.187Z,15.6
2019-04-23T08:21:09.671Z,15.7
2019-04-23T08:23:08.671Z,15.6
2019-04-23T08:24:25.392Z,15.7
2019-04-23T08:27:17.622Z,16
2019-04-23T08:28:13.224Z,16
2019-04-23T08:29:13.700Z,16.1
2019-04-23T08:30:04.179Z,16.1
2019-04-23T08:31:07.406Z,16.2
2019-04-23T08:32:11.357Z,16.3
2019-04-23T08:33:10.745Z,16.5
2019-04-23T08:34:23.723Z,16.6
2019-04-23T08:35:05.895Z,16.8
2019-04-23T08:36:11.516Z,16.7
2019-04-23T08:39:10.090Z,16.4
2019-04-23T08:40:06.111Z,16.2
2019-04-23T08:41:16.031Z,16.2
2019-04-23T08:43:17.064Z,16.2
2019-04-23T08:44:15.176Z,16.1
2019-04-23T08:45:14.927Z,16
2019-04-23T08:46:13.008Z,16.3
2019-04-23T08:47:16.878Z,16.4
2019-04-23T08:49:10.119Z,16.3
2019-04-23T08:50:12.597Z,16.2
2019-04-23T08:51:20.587Z,16.4
2019-04-23T08:52:11.491Z,16.8
2019-04-23T08:53:22.494Z,16.8
2019-04-23T08:54:13.070Z,16.7
2019-04-23T08:55:08.209Z,16.6
2019-04-23T08:56:08.563Z,16.6
2019-04-23T08:57:08.471Z,16.8
2019-04-23T08:58:18.702Z,17.1
2019-04-23T08:59:14.744Z,17
2019-04-23T09:00:07.409Z,17
2019-04-23T09:01:08.625Z,17.1
2019-04-23T09:03:18.539Z,17.5
2019-04-23T09:04:07.963Z,17.6
2019-04-23T09:04:59.567Z,17.5
2019-04-23T09:06:10.527Z,17.4
2019-04-23T09:07:16.393Z,17.5
2019-04-23T09:08:12.816Z,17.6
2019-04-23T09:09:03.979Z,17.8
2019-04-23T09:10:11.046Z,17.8
2019-04-23T09:11:29.703Z,17.9
2019-04-23T09:12:15.952Z,18.1
2019-04-23T09:13:18.065Z,18.4
2019-04-23T09:14:15.092Z,18.5
2019-04-23T09:15:15.204Z,18.7
2019-04-23T09:16:08.268Z,18.7
2019-04-23T09:17:15.285Z,18.5
2019-04-23T09:18:14.273Z,18.3
2019-04-23T09:18:43.964Z,18.3
2019-04-23T09:19:14.141Z,18.2
2019-04-23T09:20:17.774Z,18.1
2019-04-23T09:21:13.882Z,17.8
2019-04-23T09:22:20.683Z,17.5
2019-04-23T09:23:11.356Z,17.3
2019-04-23T09:24:09.013Z,17.4
2019-04-23T09:25:19.870Z,17.7
2019-04-23T09:26:06.042Z,17.9
2019-04-23T09:28:15.442Z,17.4
2019-04-23T09:30:12.357Z,17.4
2019-04-23T09:32:21.686Z,17.8
2019-04-23T09:33:13.476Z,17.9
2019-04-23T09:34:09.311Z,17.8
2019-04-23T09:35:14.127Z,17.9
2019-04-23T09:37:18.464Z,17.6
2019-04-23T09:38:10.959Z,17.4
2019-04-23T09:39:12.323Z,17.5
2019-04-23T09:40:16.515Z,17.3
2019-04-23T09:41:16.555Z,17.2
2019-04-23T09:42:14.501Z,17.5
2019-04-23T09:43:11.780Z,17.5
2019-04-23T09:44:27.078Z,17.6
2019-04-23T09:45:12.375Z,17.4
2019-04-23T09:46:17.272Z,17.5
2019-04-23T09:47:06.382Z,17.7
2019-04-23T09:48:08.303Z,17.8
2019-04-23T09:50:15.191Z,17.9
2019-04-23T09:51:17.135Z,18
2019-04-23T09:52:07.057Z,17.9
2019-04-23T09:53:24.359Z,17.9
2019-04-23T09:54:14.639Z,18.1
2019-04-23T09:55:21.781Z,18.3
2019-04-23T09:56:13.954Z,18.1
2019-04-23T09:57:10.171Z,18
2019-04-23T09:58:11.543Z,18.1
2019-04-23T09:59:21.888Z,18.3
2019-04-23T10:00:24.834Z,18.4
2019-04-23T10:01:18.049Z,18.4
2019-04-23T10:02:05.184Z,18.5
2019-04-23T10:03:04.358Z,18.4
2019-04-23T10:03:59.872Z,18.2
2019-04-23T10:05:03.855Z,18.4
2019-04-23T10:05:57.062Z,18.3
2019-04-23T10:07:01.175Z,18.7
2019-04-23T10:07:58.354Z,18.6
2019-04-23T10:08:53.480Z,18.8
2019-04-23T10:09:49.721Z,19.1
2019-04-23T10:10:49.208Z,19.4
2019-04-23T10:11:49.336Z,19.5
2019-04-23T10:12:50.165Z,19.5
2019-04-23T10:13:50.328Z,19.5
2019-04-23T10:14:57.451Z,19.5
2019-04-23T10:15:49.913Z,19
2019-04-23T10:16:49.466Z,19.1
2019-04-23T10:17:49.955Z,19.2
2019-04-23T10:18:50.878Z,19.4
2019-04-23T10:19:50.559Z,19.6
2019-04-23T10:20:49.371Z,19.4
2019-04-23T10:21:49.471Z,19.3
2019-04-23T10:22:50.417Z,19.3
2019-04-23T10:23:49.698Z,19.4
2019-04-23T10:24:50.846Z,19.7
2019-04-23T10:25:49.905Z,19.6
2019-04-23T10:26:50.351Z,19.7
2019-04-23T10:27:54.959Z,19.7
2019-04-23T10:28:49.869Z,19.6
2019-04-23T10:29:50.009Z,19.9
2019-04-23T10:30:50.895Z,19.9
2019-04-23T10:31:51.359Z,19.9
2019-04-23T10:32:51.547Z,19.8
2019-04-23T10:33:50.505Z,19.9
2019-04-23T10:35:01.198Z,19.9
2019-04-23T10:35:56.844Z,19.9
2019-04-23T10:36:51.478Z,19.5
2019-04-23T10:37:56.375Z,19.4
2019-04-23T10:38:59.375Z,19.4
2019-04-23T10:39:54.741Z,19.4
2019-04-23T10:40:51.857Z,19.2
2019-04-23T10:41:52.638Z,19.3
2019-04-23T10:42:52.189Z,19.3
2019-04-23T10:43:52.693Z,19.1
2019-04-23T10:44:52.495Z,19.1
2019-04-23T10:46:07.516Z,19.2
2019-04-23T10:47:14.840Z,19.1
2019-04-23T10:48:27.824Z,19
2019-04-23T10:50:25.860Z,18.9
2019-04-23T10:51:24.533Z,19.1
2019-04-23T10:52:18.888Z,19.3
2019-04-23T10:53:25.753Z,19.2
2019-04-23T10:54:26.143Z,19.4
2019-04-23T10:55:25.032Z,19.2
2019-04-23T10:56:26.975Z,19.3
2019-04-23T10:57:16.145Z,19.2
2019-04-23T10:59:18.703Z,19.1
2019-04-23T11:00:15.495Z,19.1
2019-04-23T11:01:20.644Z,19
2019-04-23T11:03:41.506Z,19
2019-04-23T11:04:38.081Z,19.1
2019-04-23T11:05:28.378Z,19.2
2019-04-23T11:06:23.109Z,19
2019-04-23T11:08:17.046Z,19.1
2019-04-23T11:09:34.184Z,18.9
2019-04-23T11:10:15.462Z,18.9
2019-04-23T11:11:21.749Z,19
2019-04-23T11:13:23.540Z,18.9
2019-04-23T11:14:17.978Z,18.9
2019-04-23T11:15:31.555Z,18.7
2019-04-23T11:16:44.625Z,19
2019-04-23T11:18:08.614Z,19.3
2019-04-23T11:19:23.352Z,19.3
2019-04-23T11:20:25.152Z,19
2019-04-23T11:21:20.237Z,19
2019-04-23T11:22:35.656Z,19.2
2019-04-23T11:23:10.958Z,19.4
2019-04-23T11:24:35.484Z,19.4
2019-04-23T11:25:34.657Z,19.2
2019-04-23T11:26:27.988Z,19.1
2019-04-23T11:27:27.780Z,19
2019-04-23T11:28:13.142Z,19
2019-04-23T11:29:25.434Z,18.7
2019-04-23T11:31:28.848Z,18.6
2019-04-23T11:32:36.315Z,18.7
2019-04-23T11:33:18.268Z,18.8
2019-04-23T11:34:47.324Z,18.9
2019-04-23T11:35:27.606Z,18.9
2019-04-23T11:37:31.231Z,19.1
2019-04-23T11:38:48.148Z,19
2019-04-23T11:39:21.474Z,19.3
2019-04-23T11:40:25.059Z,19.2
2019-04-23T11:41:32.082Z,19.1
2019-04-23T11:42:09.951Z,18.9
2019-04-23T11:43:19.931Z,18.8
2019-04-23T11:44:26.156Z,18.9
2019-04-23T11:47:45.365Z,19
2019-04-23T11:49:44.672Z,19
2019-04-23T11:50:39.225Z,19.2
2019-04-23T11:52:29.921Z,19.4
2019-04-23T11:53:25.476Z,19.3
2019-04-23T11:54:22.511Z,19.1
2019-04-23T11:55:38.721Z,19.2
2019-04-23T11:56:34.750Z,19
2019-04-23T11:58:40.489Z,19.1
2019-04-23T11:59:30.976Z,18.9
2019-04-23T12:00:33.486Z,18.9
2019-04-23T12:01:36.995Z,19
2019-04-23T12:02:21.835Z,19.3
2019-04-23T12:03:05.986Z,19.4
2019-04-23T12:04:26.103Z,19.4
2019-04-23T12:05:40.566Z,19.3
2019-04-23T12:06:10.974Z,19.3
2019-04-23T12:07:17.126Z,19.3
2019-04-23T12:08:24.774Z,19.1
2019-04-23T12:09:34.605Z,19.2
2019-04-23T12:10:28.549Z,19.1
2019-04-23T12:11:46.257Z,19.1
2019-04-23T12:12:27.847Z,19
2019-04-23T12:13:26.088Z,19
2019-04-23T12:14:28.955Z,19
2019-04-23T12:15:31.667Z,19.1
2019-04-23T12:17:18.358Z,19.4
2019-04-23T12:20:26.572Z,19.4
2019-04-23T12:21:27.618Z,19.8
2019-04-23T12:22:35.281Z,19.8
2019-04-23T12:23:31.381Z,19.7
2019-04-23T12:24:41.816Z,19.5
2019-04-23T12:25:24.930Z,19.6
2019-04-23T12:26:35.223Z,19.8
2019-04-23T12:27:13.369Z,19.6
2019-04-23T12:29:32.716Z,19.9
2019-04-23T12:31:30.802Z,19.7
2019-04-23T12:32:41.714Z,19.8
2019-04-23T12:33:35.905Z,19.7
2019-04-23T12:34:24.879Z,19.7
2019-04-23T12:35:22.278Z,19.7
2019-04-23T12:36:27.957Z,19.8
2019-04-23T12:37:38.973Z,19.7
2019-04-23T12:38:24.943Z,19.7
2019-04-23T12:39:32.717Z,19.6
2019-04-23T12:40:24.633Z,19.4
2019-04-23T12:41:28.129Z,19.5
2019-04-23T12:42:48.325Z,19.6
2019-04-23T12:43:21.557Z,19.6
2019-04-23T12:44:30.432Z,19.7
2019-04-23T12:45:35.309Z,19.6
2019-04-23T12:46:29.499Z,19.4
2019-04-23T12:47:43.276Z,19.4
2019-04-23T12:48:38.158Z,19.4
2019-04-23T12:49:52.636Z,19.5
2019-04-23T12:51:34.444Z,19.5
2019-04-23T12:52:33.748Z,19.6
2019-04-23T12:53:30.310Z,19.6
2019-04-23T12:54:40.861Z,19.9
2019-04-23T12:55:35.721Z,19.9
2019-04-23T12:56:40.146Z,19.7
2019-04-23T12:57:33.924Z,19.8
2019-04-23T12:58:24.408Z,19.8
2019-04-23T12:59:26.766Z,19.8
2019-04-23T13:01:32.210Z,20
2019-04-23T13:02:37.909Z,20.1
2019-04-23T13:03:29.528Z,20.2
2019-04-23T13:04:32.007Z,20.4
2019-04-23T13:05:26.528Z,20.5
2019-04-23T13:06:26.814Z,20.5
2019-04-23T13:07:37.870Z,20.5
2019-04-23T13:08:37.854Z,20.4
2019-04-23T13:09:41.683Z,20.4
2019-04-23T13:10:39.758Z,20.4
2019-04-23T13:12:41.138Z,20.1
2019-04-23T13:13:27.513Z,20.3
2019-04-23T13:14:34.527Z,20.3
2019-04-23T13:15:34.115Z,20.3
2019-04-23T13:16:35.021Z,20.2
2019-04-23T13:17:37.513Z,20
2019-04-23T13:19:39.294Z,20.3
2019-04-23T13:23:29.161Z,19.9
2019-04-23T13:24:25.717Z,19.9
2019-04-23T13:25:34.432Z,20
2019-04-23T13:26:22.909Z,20.1
2019-04-23T13:27:37.528Z,20.2
2019-04-23T13:29:35.509Z,20.2
2019-04-23T13:31:20.060Z,20.3
2019-04-23T13:32:27.328Z,20.3
2019-04-23T13:33:33.331Z,20.4
2019-04-23T13:34:39.706Z,20.4
2019-04-23T13:35:45.216Z,20.5
2019-04-23T13:36:20.732Z,20.4
2019-04-23T13:37:35.252Z,20.4
2019-04-23T13:38:39.916Z,20.7
2019-04-23T13:39:32.818Z,20.5
2019-04-23T13:40:37.266Z,20.4
2019-04-23T13:41:31.170Z,20.2
2019-04-23T13:42:40.130Z,20.2
2019-04-23T13:44:30.896Z,20.4
2019-04-23T13:45:52.837Z,20.6
2019-04-23T13:46:28.650Z,20.7
2019-04-23T13:47:46.638Z,20.5
2019-04-23T13:48:19.709Z,20.3
2019-04-23T13:49:32.866Z,20.4
2019-04-23T13:51:30.301Z,20.3
2019-04-23T13:53:39.243Z,20.5
2019-04-23T13:54:54.335Z,20.3
2019-04-23T13:55:26.483Z,20.6
2019-04-23T13:56:36.573Z,20.6
2019-04-23T13:57:55.834Z,20.7
2019-04-23T13:58:33.973Z,20.8
2019-04-23T13:59:38.686Z,20.5
2019-04-23T14:00:44.288Z,20.3
2019-04-23T14:01:31.905Z,20.3
2019-04-23T14:03:30.043Z,20.4
2019-04-23T14:04:44.491Z,20.6
2019-04-23T14:05:32.817Z,20.3
2019-04-23T14:06:36.009Z,20.3
2019-04-23T14:07:38.178Z,20.4
2019-04-23T14:08:46.848Z,20.5
2019-04-23T14:09:53.930Z,20.5
2019-04-23T14:11:30.572Z,20.8
2019-04-23T14:12:41.384Z,20.5
2019-04-23T14:13:43.843Z,20.5
2019-04-23T14:14:47.382Z,20.6
2019-04-23T14:16:47.721Z,20.4
2019-04-23T14:17:51.373Z,20.4
2019-04-23T14:19:27.558Z,20.4
2019-04-23T14:20:31.427Z,20.3
2019-04-23T14:21:30.137Z,20.4
2019-04-23T14:23:43.298Z,20.5
2019-04-23T14:24:43.897Z,20.5
2019-04-23T14:25:38.637Z,20.5
2019-04-23T14:26:37.850Z,20.4
2019-04-23T14:27:31.860Z,20.5
2019-04-23T14:28:34.124Z,20.6
2019-04-23T14:29:36.712Z,20.7
2019-04-23T14:30:36.008Z,20.8
2019-04-23T14:31:27.257Z,20.6
2019-04-23T14:32:32.905Z,20.4
2019-04-23T14:34:32.927Z,20.3
2019-04-23T14:37:27.586Z,20.3
2019-04-23T14:38:37.193Z,20.4
2019-04-23T14:39:30.604Z,20.5
2019-04-23T14:40:42.293Z,20.5
2019-04-23T14:41:29.206Z,20.4
2019-04-23T14:42:42.661Z,20.3
2019-04-23T14:43:28.920Z,20.2
2019-04-23T14:44:29.172Z,20.1
2019-04-23T14:45:48.844Z,20.2
2019-04-23T14:47:34.176Z,20.5
2019-04-23T14:48:36.251Z,20.5
2019-04-23T14:51:35.128Z,20.3
2019-04-23T14:52:36.474Z,20.4
2019-04-23T14:53:28.818Z,20.3
2019-04-23T14:55:56.028Z,20.4
2019-04-23T14:56:33.991Z,20.3
2019-04-23T14:57:37.856Z,20.3
2019-04-23T14:58:41.849Z,20.4
2019-04-23T14:59:27.747Z,20.4
2019-04-23T15:00:38.986Z,20.2
2019-04-23T15:01:34.006Z,20.2
2019-04-23T15:02:33.347Z,20.3
2019-04-23T15:03:38.127Z,20.3
2019-04-23T15:07:33.163Z,20.3
2019-04-23T15:08:45.888Z,20.2
2019-04-23T15:09:39.538Z,20.2
2019-04-23T15:10:39.017Z,20.3
2019-04-23T15:13:34.007Z,20.6
2019-04-23T15:14:41.450Z,20.5
2019-04-23T15:15:28.761Z,20.6
2019-04-23T15:16:36.285Z,20.6
2019-04-23T15:17:32.093Z,20.4
2019-04-23T15:18:43.842Z,20.3
2019-04-23T15:19:39.520Z,20.2
2019-04-23T15:22:41.234Z,20.1
2019-04-23T15:23:59.451Z,20.2
2019-04-23T15:24:36.768Z,20.3
2019-04-23T15:25:42.089Z,20.3
2019-04-23T15:27:19.489Z,20.2
2019-04-23T15:28:12.018Z,20.3
2019-04-23T15:29:30.031Z,20.4
2019-04-23T15:30:33.804Z,20.4
2019-04-23T15:31:37.816Z,20.5
2019-04-23T15:32:41.591Z,20.5
2019-04-23T15:33:43.119Z,20.5
2019-04-23T15:34:46.796Z,20.3
2019-04-23T15:39:35.221Z,20.6
2019-04-23T15:40:31.389Z,20.7
2019-04-23T15:42:39.574Z,20.3
2019-04-23T15:43:36.840Z,20.3
2019-04-23T15:44:29.612Z,20.4
2019-04-23T15:45:44.256Z,20.4
2019-04-23T15:46:38.568Z,20.5
2019-04-23T15:47:38.007Z,20.6
2019-04-23T15:48:40.121Z,20.6
2019-04-23T15:50:35.118Z,20.6
2019-04-23T15:52:43.275Z,20.5
2019-04-23T15:53:29.614Z,20.6
2019-04-23T15:54:41.685Z,20.6
2019-04-23T15:56:40.265Z,20.9
2019-04-23T15:57:59.402Z,20.9
2019-04-23T15:58:52.467Z,20.8
2019-04-23T15:59:54.452Z,20.9
2019-04-23T16:00:28.821Z,20.9
2019-04-23T16:01:40.918Z,21
2019-04-23T16:02:11.089Z,21
2019-04-23T16:03:13.376Z,20.8
2019-04-23T16:04:11.904Z,20.7
2019-04-23T16:05:12.354Z,20.6
2019-04-23T16:06:13.654Z,20.5
2019-04-23T16:07:13.643Z,20.7
2019-04-23T16:08:44.962Z,20.7
2019-04-23T16:09:35.586Z,20.7
2019-04-23T16:10:47.130Z,20.6
2019-04-23T16:12:39.933Z,20.7